Time;durP1;ratioP1;P1;durP2;ratioP2;P2;SDS_P1;SDS_P2;PMS_P1;PMS_P2;Temp;Humidity;BMP_temperature;BMP_pressure;BME280_temperature;BME280_humidity;BME280_pressure;Samples;Min_cycle;Max_cycle;Signal;HPM_P1;HPM_P2
2023/06/24 00:00:23;;;;;;;4.13;3.72;;;23.90;49.80;;;;;;5037324;28;20231;-85
2023/06/24 00:02:51;;;;;;;3.85;3.50;;;23.90;49.90;;;;;;5036954;28;20196;-85
2023/06/24 00:05:18;;;;;;;3.88;3.58;;;23.90;49.60;;;;;;5035829;28;20196;-85
2023/06/24 00:07:45;;;;;;;4.30;3.60;;;23.80;49.90;;;;;;5034266;28;20206;-85
2023/06/24 00:10:13;;;;;;;4.25;3.85;;;23.80;49.90;;;;;;5034113;28;20307;-85
2023/06/24 00:12:41;;;;;;;3.50;3.20;;;23.80;49.70;;;;;;5034130;28;20223;-84
2023/06/24 00:15:09;;;;;;;4.00;3.58;;;23.80;49.80;;;;;;5034254;28;20207;-85
2023/06/24 00:17:37;;;;;;;3.80;3.50;;;23.80;50.10;;;;;;5034376;28;20231;-85
2023/06/24 00:20:08;;;;;;;3.83;3.42;;;23.80;49.90;;;;;;5018183;28;20216;-85
2023/06/24 00:22:35;;;;;;;4.00;3.60;;;23.80;50.00;;;;;;5034270;28;20597;-85
2023/06/24 00:25:02;;;;;;;4.68;3.47;;;23.80;50.10;;;;;;5034472;28;20211;-85
2023/06/24 00:27:29;;;;;;;3.95;3.65;;;23.70;50.00;;;;;;5034422;28;20549;-85
2023/06/24 00:29:59;;;;;;;3.85;3.55;;;23.70;49.70;;;;;;5036822;28;20305;-86
2023/06/24 00:32:26;;;;;;;3.42;3.13;;;23.70;49.90;;;;;;5035109;28;20258;-85
2023/06/24 00:34:57;;;;;;;4.03;3.63;;;23.70;49.90;;;;;;5035092;28;20244;-85
2023/06/24 00:37:24;;;;;;;3.67;3.38;;;23.70;49.90;;;;;;5034349;28;20192;-85
2023/06/24 00:39:52;;;;;;;3.80;3.50;;;23.70;50.00;;;;;;5037502;28;20215;-85
2023/06/24 00:42:19;;;;;;;3.85;3.55;;;23.70;50.10;;;;;;5036690;28;20200;-85
2023/06/24 00:44:47;;;;;;;3.80;3.50;;;23.70;50.00;;;;;;5038271;28;20212;-85
2023/06/24 00:47:15;;;;;;;3.80;3.50;;;23.60;49.90;;;;;;5041779;28;20176;-85
2023/06/24 00:49:45;;;;;;;3.75;3.45;;;23.60;49.90;;;;;;5022826;28;20220;-85
2023/06/24 00:52:15;;;;;;;4.32;3.92;;;23.60;50.10;;;;;;5040681;28;20200;-85
2023/06/24 00:54:42;;;;;;;4.13;3.65;;;23.50;50.00;;;;;;5040994;28;20192;-85
2023/06/24 00:57:09;;;;;;;3.45;3.15;;;23.60;50.30;;;;;;5041169;28;20198;-85
2023/06/24 00:59:37;;;;;;;3.80;3.50;;;23.60;50.00;;;;;;5041464;28;20288;-85
2023/06/24 01:02:04;;;;;;;3.65;3.35;;;23.60;50.00;;;;;;5040087;28;20196;-85
2023/06/24 01:04:34;;;;;;;3.88;3.58;;;23.50;50.00;;;;;;5040419;28;20266;-85
2023/06/24 01:07:01;;;;;;;4.07;3.50;;;23.50;50.00;;;;;;5043172;28;20583;-85
2023/06/24 01:09:30;;;;;;;4.80;3.70;;;23.50;50.30;;;;;;5043753;28;20216;-85
2023/06/24 01:11:57;;;;;;;3.83;3.53;;;23.50;50.10;;;;;;5043464;28;20652;-85
2023/06/24 01:14:24;;;;;;;3.78;3.47;;;23.50;49.90;;;;;;5045042;28;20196;-85
2023/06/24 01:16:55;;;;;;;4.10;3.65;;;23.50;50.10;;;;;;5043489;28;20204;-85
2023/06/24 01:19:45;;;;;;;4.57;3.65;;;23.50;49.90;;;;;;5044409;28;20216;-85
2023/06/24 01:22:21;;;;;;;3.78;3.47;;;23.40;49.80;;;;;;5040050;28;20200;-85
2023/06/24 01:25:00;;;;;;;3.95;3.65;;;23.50;50.30;;;;;;5043531;28;20204;-85
2023/06/24 01:27:44;;;;;;;3.78;3.47;;;23.40;50.00;;;;;;5044739;28;20299;-85
2023/06/24 01:30:31;;;;;;;3.88;3.58;;;23.40;50.00;;;;;;5043821;28;20244;-85
2023/06/24 01:33:00;;;;;;;4.10;3.58;;;23.40;50.00;;;;;;5043640;28;20192;-85
2023/06/24 01:35:29;;;;;;;4.35;3.58;;;23.40;50.10;;;;;;5044411;28;20272;-84
2023/06/24 01:37:58;;;;;;;4.25;3.85;;;23.40;50.00;;;;;;5043573;28;20196;-84
2023/06/24 01:40:27;;;;;;;4.30;3.90;;;23.40;49.80;;;;;;5044631;28;20200;-85
2023/06/24 01:42:54;;;;;;;4.07;3.67;;;23.40;50.00;;;;;;5047246;28;20223;-85
2023/06/24 01:45:30;;;;;;;4.05;3.58;;;23.40;50.00;;;;;;5046751;28;20208;-85
2023/06/24 01:48:01;;;;;;;3.90;3.50;;;23.30;49.80;;;;;;5030579;28;20558;-85
2023/06/24 01:50:29;;;;;;;4.10;3.75;;;23.30;49.90;;;;;;5048251;28;20219;-85
2023/06/24 01:52:56;;;;;;;4.43;4.03;;;23.30;50.00;;;;;;5047431;28;20204;-85
2023/06/24 01:55:23;;;;;;;4.22;3.50;;;23.30;50.10;;;;;;5047135;28;20291;-85
2023/06/24 01:57:50;;;;;;;4.20;3.80;;;23.30;49.90;;;;;;5040762;28;20227;-84
2023/06/24 02:00:18;;;;;;;4.32;3.65;;;23.30;50.10;;;;;;5038652;28;20215;-85
2023/06/24 02:02:51;;;;;;;4.05;3.65;;;23.30;50.10;;;;;;5039624;28;20535;-84
2023/06/24 02:05:20;;;;;;;4.38;3.97;;;23.30;50.00;;;;;;5037935;28;20251;-84
2023/06/24 02:07:49;;;;;;;4.55;3.78;;;23.20;50.10;;;;;;5037638;28;20611;-85
2023/06/24 02:10:16;;;;;;;4.97;3.97;;;23.20;50.10;;;;;;5021928;28;20244;-85
2023/06/24 02:12:46;;;;;;;4.07;3.78;;;23.20;50.00;;;;;;5037949;28;20239;-84
2023/06/24 02:15:14;;;;;;;4.82;3.92;;;23.20;50.10;;;;;;5037977;28;20203;-85
2023/06/24 02:17:41;;;;;;;4.53;4.13;;;23.20;49.90;;;;;;5036952;28;20196;-85
2023/06/24 02:20:10;;;;;;;6.38;4.20;;;23.20;50.00;;;;;;5037948;28;20219;-85
2023/06/24 02:22:39;;;;;;;4.50;4.10;;;23.10;50.00;;;;;;5038557;28;20212;-84
2023/06/24 02:25:07;;;;;;;4.55;4.15;;;23.10;49.90;;;;;;5037902;28;20203;-85
2023/06/24 02:27:35;;;;;;;4.05;3.72;;;23.10;50.00;;;;;;5037809;28;20214;-86
2023/06/24 02:30:02;;;;;;;4.35;3.95;;;23.10;50.10;;;;;;5037907;28;20215;-85
2023/06/24 02:32:30;;;;;;;5.20;4.47;;;23.10;50.20;;;;;;5037117;28;20212;-85
2023/06/24 02:34:58;;;;;;;3.92;3.63;;;23.10;50.10;;;;;;5037074;28;20214;-85
2023/06/24 02:37:25;;;;;;;4.00;3.70;;;23.10;50.10;;;;;;5038027;28;20605;-85
2023/06/24 02:39:53;;;;;;;4.25;3.85;;;23.10;50.10;;;;;;5038148;28;20219;-85
2023/06/24 02:42:20;;;;;;;4.35;3.95;;;23.10;50.10;;;;;;5037700;28;20192;-85
2023/06/24 02:44:49;;;;;;;4.15;3.78;;;23.00;50.10;;;;;;5036119;28;20208;-85
2023/06/24 02:47:16;;;;;;;4.32;3.92;;;23.00;50.10;;;;;;5036032;28;20200;-84
2023/06/24 02:49:46;;;;;;;3.88;3.58;;;23.00;50.20;;;;;;5019970;28;20227;-84
2023/06/24 02:52:13;;;;;;;3.92;3.60;;;23.00;50.20;;;;;;5020563;28;20694;-85
2023/06/24 02:54:40;;;;;;;4.30;3.90;;;23.00;50.30;;;;;;5038870;28;20207;-85
2023/06/24 02:57:39;;;;;;;4.47;4.07;;;23.00;50.20;;;;;;5028944;28;20211;-85
2023/06/24 03:00:26;;;;;;;4.25;3.90;;;23.00;50.30;;;;;;5006819;28;20211;-84
2023/06/24 03:03:14;;;;;;;4.80;4.13;;;23.00;50.30;;;;;;5036280;28;20188;-84
2023/06/24 03:05:50;;;;;;;4.45;4.05;;;23.00;50.10;;;;;;5036122;28;20732;-84
2023/06/24 03:08:17;;;;;;;4.78;3.88;;;22.90;49.90;;;;;;5035158;28;20707;-84
2023/06/24 03:10:47;;;;;;;4.70;4.30;;;22.90;50.10;;;;;;5036037;28;20685;-84
2023/06/24 03:13:21;;;;;;;4.80;4.40;;;22.90;50.00;;;;;;5035781;28;20187;-84
2023/06/24 03:15:56;;;;;;;4.50;4.10;;;22.90;49.90;;;;;;5035342;28;20199;-84
2023/06/24 03:18:26;;;;;;;4.70;4.15;;;22.90;50.10;;;;;;5019497;28;20222;-85
2023/06/24 03:20:53;;;;;;;5.30;4.80;;;22.90;49.90;;;;;;5034984;28;20279;-85
2023/06/24 03:23:24;;;;;;;4.72;4.32;;;23.00;50.00;;;;;;5035775;28;20183;-85
2023/06/24 03:25:52;;;;;;;4.55;4.15;;;23.00;50.10;;;;;;5035304;28;20204;-85
2023/06/24 03:28:21;;;;;;;4.63;4.22;;;23.00;50.00;;;;;;5034129;28;20299;-85
2023/06/24 03:30:55;;;;;;;4.55;4.15;;;23.00;49.90;;;;;;5036167;28;20212;-84
2023/06/24 03:33:24;;;;;;;5.43;4.40;;;23.10;50.40;;;;;;5036017;28;20545;-84
2023/06/24 03:35:51;;;;;;;4.50;4.10;;;23.10;49.80;;;;;;5034710;28;20204;-84
2023/06/24 03:38:23;;;;;;;4.55;4.15;;;23.10;49.70;;;;;;5035460;28;20278;-84
2023/06/24 03:40:50;;;;;;;4.63;4.22;;;23.10;49.60;;;;;;5034251;28;20195;-84
2023/06/24 03:43:17;;;;;;;4.47;4.07;;;23.20;49.60;;;;;;5034484;28;20202;-84
2023/06/24 03:45:46;;;;;;;4.50;4.10;;;23.10;49.40;;;;;;5034509;28;20223;-85
2023/06/24 03:48:13;;;;;;;4.63;4.22;;;23.10;49.40;;;;;;5034230;28;20204;-84
2023/06/24 03:50:40;;;;;;;4.65;4.25;;;23.20;49.30;;;;;;5034940;28;20253;-84
2023/06/24 03:53:07;;;;;;;4.75;4.35;;;23.20;49.30;;;;;;5034629;28;20210;-85
2023/06/24 03:55:35;;;;;;;5.00;4.50;;;23.20;49.40;;;;;;5034727;28;20668;-84
2023/06/24 03:58:03;;;;;;;4.32;4.03;;;23.30;49.30;;;;;;5034923;28;20196;-85
2023/06/24 04:00:30;;;;;;;4.60;4.20;;;23.30;49.40;;;;;;5034324;28;20196;-85
2023/06/24 04:03:01;;;;;;;4.53;4.13;;;23.20;49.30;;;;;;5034455;28;20196;-85
2023/06/24 04:05:28;;;;;;;5.78;4.50;;;23.20;49.30;;;;;;5034374;28;20283;-84
2023/06/24 04:07:56;;;;;;;4.82;4.43;;;23.20;49.20;;;;;;5034391;28;20196;-84
2023/06/24 04:10:23;;;;;;;5.75;4.40;;;23.30;49.50;;;;;;5035793;28;20206;-85
2023/06/24 04:12:50;;;;;;;5.25;4.47;;;23.20;49.40;;;;;;5037197;28;20615;-84
2023/06/24 04:15:18;;;;;;;4.53;4.13;;;23.20;49.40;;;;;;5035266;28;20203;-85
2023/06/24 04:17:45;;;;;;;5.30;4.80;;;23.20;49.50;;;;;;5035190;28;20662;-85
2023/06/24 04:20:15;;;;;;;4.82;4.43;;;23.20;49.50;;;;;;5035210;28;20215;-85
2023/06/24 04:22:42;;;;;;;4.60;4.20;;;23.20;49.60;;;;;;5037226;28;20199;-85
2023/06/24 04:25:11;;;;;;;4.68;4.28;;;23.20;49.50;;;;;;5042482;28;20196;-84
2023/06/24 04:27:38;;;;;;;5.05;4.55;;;23.20;49.60;;;;;;5038809;28;20204;-85
2023/06/24 04:30:10;;;;;;;5.28;4.57;;;23.30;49.60;;;;;;5036181;28;20220;-85
2023/06/24 04:32:37;;;;;;;5.10;4.57;;;23.20;49.60;;;;;;5035682;28;20219;-84
2023/06/24 04:35:05;;;;;;;5.10;4.60;;;23.30;49.80;;;;;;5019127;28;20280;-85
2023/06/24 04:37:35;;;;;;;5.15;4.75;;;23.30;49.90;;;;;;5035930;28;20235;-83
2023/06/24 04:40:03;;;;;;;5.18;4.68;;;23.30;49.90;;;;;;5036966;28;20303;-83
2023/06/24 04:42:31;;;;;;;5.30;4.60;;;23.30;49.90;;;;;;5039479;28;20196;-83
2023/06/24 04:44:58;;;;;;;4.72;4.32;;;23.40;50.00;;;;;;5039553;28;20576;-84
2023/06/24 04:47:25;;;;;;;5.50;5.00;;;23.30;50.20;;;;;;5038641;28;20547;-84
2023/06/24 04:49:52;;;;;;;5.32;4.82;;;23.00;50.80;;;;;;5040160;28;20220;-83
2023/06/24 04:52:19;;;;;;;5.53;5.03;;;22.70;51.60;;;;;;5043042;28;20220;-84
2023/06/24 04:54:48;;;;;;;5.03;4.53;;;22.50;52.20;;;;;;5043133;28;20200;-83
2023/06/24 04:57:24;;;;;;;5.40;4.90;;;22.30;52.90;;;;;;5041948;28;20218;-83
2023/06/24 04:59:51;;;;;;;5.53;4.85;;;22.10;53.40;;;;;;5037754;28;20230;-83
2023/06/24 05:02:18;;;;;;;5.40;4.90;;;22.00;53.70;;;;;;5038227;28;20196;-84
2023/06/24 05:04:45;;;;;;;5.35;4.85;;;22.00;54.70;;;;;;5037762;28;20200;-83
2023/06/24 05:07:12;;;;;;;5.82;5.20;;;21.90;54.40;;;;;;5037778;28;20204;-84
2023/06/24 05:09:39;;;;;;;5.63;4.97;;;21.90;54.50;;;;;;5039617;28;20287;-83
2023/06/24 05:12:09;;;;;;;6.13;5.38;;;21.80;54.70;;;;;;5025484;28;20212;-83
2023/06/24 05:14:36;;;;;;;5.75;5.25;;;21.80;55.00;;;;;;5041497;28;20246;-83
2023/06/24 05:17:04;;;;;;;5.72;5.15;;;21.80;55.00;;;;;;5040839;28;20279;-83
2023/06/24 05:19:31;;;;;;;5.50;4.82;;;22.00;55.00;;;;;;5039372;28;20227;-82
2023/06/24 05:21:58;;;;;;;5.22;4.72;;;22.30;54.10;;;;;;5039538;28;20295;-84
2023/06/24 05:24:25;;;;;;;5.10;4.60;;;22.60;53.10;;;;;;5039670;28;20204;-84
2023/06/24 05:26:52;;;;;;;5.00;4.40;;;22.90;52.40;;;;;;5036753;28;20211;-84
2023/06/24 05:29:21;;;;;;;5.38;4.70;;;23.10;51.70;;;;;;5036420;28;20220;-84
2023/06/24 05:31:47;;;;;;;5.65;4.85;;;23.40;51.20;;;;;;5036728;28;20314;-84
2023/06/24 05:34:14;;;;;;;4.93;4.43;;;23.60;50.60;;;;;;5020098;28;20729;-84
2023/06/24 05:36:42;;;;;;;4.60;4.20;;;23.90;50.10;;;;;;5035976;28;20223;-83
2023/06/24 05:39:09;;;;;;;5.25;4.75;;;24.10;49.60;;;;;;5036959;28;20220;-83
2023/06/24 05:41:37;;;;;;;5.15;4.65;;;24.30;49.20;;;;;;5036631;28;20192;-82
2023/06/24 05:44:04;;;;;;;5.38;4.88;;;24.40;49.00;;;;;;5020457;28;20278;-82
2023/06/24 05:46:33;;;;;;;4.63;4.20;;;24.60;48.70;;;;;;5036478;28;20200;-82
2023/06/24 05:49:00;;;;;;;4.60;4.20;;;24.80;48.40;;;;;;5035763;28;20223;-82
2023/06/24 05:51:27;;;;;;;5.03;4.53;;;24.90;48.10;;;;;;5034646;28;20200;-82
2023/06/24 05:53:54;;;;;;;5.85;4.55;;;25.00;47.90;;;;;;5035868;28;20207;-82
2023/06/24 05:56:21;;;;;;;4.75;4.35;;;25.20;47.60;;;;;;5035767;28;20208;-82
2023/06/24 05:58:49;;;;;;;4.45;4.05;;;25.30;47.30;;;;;;5035564;28;20216;-82
2023/06/24 06:01:16;;;;;;;4.50;4.10;;;25.40;47.20;;;;;;5035677;28;20561;-82
2023/06/24 06:03:45;;;;;;;4.82;4.22;;;25.50;47.10;;;;;;5036837;28;20188;-82
2023/06/24 06:06:12;;;;;;;4.63;4.22;;;25.60;47.00;;;;;;5037017;28;20683;-82
2023/06/24 06:08:39;;;;;;;4.45;4.05;;;25.60;46.70;;;;;;5035672;28;20216;-82
2023/06/24 06:11:06;;;;;;;4.60;4.20;;;25.70;46.50;;;;;;5019062;28;20203;-82
2023/06/24 06:13:34;;;;;;;4.30;3.90;;;25.80;46.40;;;;;;5035526;28;20239;-82
2023/06/24 06:16:01;;;;;;;5.28;4.20;;;25.90;46.20;;;;;;5019661;28;20218;-82
2023/06/24 06:18:29;;;;;;;4.53;4.13;;;26.00;45.90;;;;;;5003013;28;20220;-82
2023/06/24 06:20:57;;;;;;;4.45;4.00;;;26.10;45.90;;;;;;5035331;28;20270;-82
2023/06/24 06:23:25;;;;;;;4.40;4.03;;;26.20;45.70;;;;;;5035980;28;20284;-82
2023/06/24 06:25:53;;;;;;;4.45;4.05;;;26.20;45.50;;;;;;5035155;28;20196;-82
2023/06/24 06:28:20;;;;;;;4.30;3.90;;;26.30;45.30;;;;;;5035239;28;20593;-82
2023/06/24 06:30:47;;;;;;;4.85;4.10;;;26.40;45.20;;;;;;5035436;28;20203;-82
2023/06/24 06:33:14;;;;;;;4.45;4.05;;;26.50;45.00;;;;;;5035704;28;20217;-82
2023/06/24 06:35:41;;;;;;;3.97;3.58;;;26.60;44.80;;;;;;5035154;28;20210;-82
2023/06/24 06:38:10;;;;;;;4.05;3.75;;;26.70;44.70;;;;;;5035491;28;20196;-82
2023/06/24 06:40:37;;;;;;;4.50;4.10;;;26.70;44.50;;;;;;5034714;28;20203;-82
2023/06/24 06:43:05;;;;;;;3.67;3.38;;;26.80;44.30;;;;;;5035163;28;20282;-82
2023/06/24 06:45:32;;;;;;;3.92;3.53;;;26.90;44.10;;;;;;5034541;28;20284;-82
2023/06/24 06:47:59;;;;;;;4.32;3.60;;;27.00;44.00;;;;;;5034357;28;20593;-83
2023/06/24 06:50:27;;;;;;;4.55;4.15;;;27.10;43.90;;;;;;5034557;28;20196;-83
2023/06/24 06:52:54;;;;;;;4.82;4.10;;;27.20;43.80;;;;;;5019031;28;20273;-83
2023/06/24 06:55:23;;;;;;;4.22;3.83;;;27.20;43.60;;;;;;5034247;28;20204;-83
2023/06/24 06:57:50;;;;;;;4.75;4.05;;;27.30;43.50;;;;;;5035071;28;20290;-83
2023/06/24 07:00:18;;;;;;;4.15;3.75;;;27.30;43.40;;;;;;5036142;28;20732;-83
2023/06/24 07:02:45;;;;;;;4.13;3.72;;;27.40;43.30;;;;;;5034372;28;20192;-82
2023/06/24 07:05:12;;;;;;;4.13;3.72;;;27.50;43.20;;;;;;5034532;28;20678;-82
2023/06/24 07:07:39;;;;;;;4.38;3.97;;;27.50;43.10;;;;;;5034168;28;20207;-82
2023/06/24 07:10:07;;;;;;;3.70;3.40;;;27.50;42.80;;;;;;5034310;28;20701;-83
2023/06/24 07:12:36;;;;;;;4.18;3.80;;;27.60;42.90;;;;;;5019411;28;20580;-83
2023/06/24 07:15:03;;;;;;;3.97;3.67;;;27.70;42.60;;;;;;5019606;28;20192;-83
2023/06/24 07:17:31;;;;;;;4.25;3.80;;;27.70;42.50;;;;;;5035355;28;20239;-83
2023/06/24 07:19:58;;;;;;;3.80;3.50;;;27.80;42.40;;;;;;5034446;28;20293;-83
2023/06/24 07:22:25;;;;;;;4.40;4.00;;;27.80;42.40;;;;;;5035287;28;20196;-83
2023/06/24 07:24:52;;;;;;;4.10;3.80;;;27.90;42.30;;;;;;5034387;28;20290;-83
2023/06/24 07:27:20;;;;;;;4.30;3.90;;;27.90;42.10;;;;;;5034441;28;20215;-83
2023/06/24 07:29:48;;;;;;;4.05;3.75;;;28.00;42.10;;;;;;5034320;28;20223;-82
2023/06/24 07:32:15;;;;;;;3.90;3.60;;;28.00;42.50;;;;;;5033788;28;20265;-82
2023/06/24 07:34:42;;;;;;;4.18;3.88;;;28.10;41.80;;;;;;5034449;28;20199;-82
2023/06/24 07:37:09;;;;;;;4.28;3.78;;;28.10;41.70;;;;;;5034216;28;20653;-83
2023/06/24 07:39:37;;;;;;;3.88;3.55;;;28.10;41.60;;;;;;5033798;28;20674;-83
2023/06/24 07:42:05;;;;;;;4.35;3.95;;;28.20;41.50;;;;;;5036148;28;20191;-83
2023/06/24 07:44:31;;;;;;;3.65;3.35;;;28.20;41.40;;;;;;5037050;28;20207;-83
2023/06/24 07:47:00;;;;;;;3.90;3.60;;;28.30;41.30;;;;;;5035174;28;20223;-83
2023/06/24 07:49:27;;;;;;;3.80;3.40;;;28.30;41.20;;;;;;5033709;28;20219;-83
2023/06/24 07:51:54;;;;;;;3.58;3.28;;;28.40;41.20;;;;;;5017794;28;20661;-83
2023/06/24 07:54:22;;;;;;;3.75;3.45;;;28.40;41.00;;;;;;5017973;28;20297;-83
2023/06/24 07:56:49;;;;;;;4.03;3.63;;;28.40;40.90;;;;;;5033985;28;20195;-83
2023/06/24 07:59:16;;;;;;;3.88;3.58;;;28.50;40.90;;;;;;5035390;28;20215;-83
2023/06/24 08:01:44;;;;;;;3.60;3.30;;;28.50;40.80;;;;;;5039218;28;20199;-83
2023/06/24 08:04:12;;;;;;;4.30;3.90;;;28.50;40.70;;;;;;5039162;28;20205;-84
2023/06/24 08:06:40;;;;;;;4.00;3.70;;;28.60;40.70;;;;;;5038342;28;20206;-83
2023/06/24 08:09:07;;;;;;;3.75;3.42;;;28.60;40.60;;;;;;5038395;28;20219;-83
2023/06/24 08:11:34;;;;;;;3.92;3.53;;;28.60;40.60;;;;;;5038887;28;20542;-83
2023/06/24 08:14:01;;;;;;;3.67;3.38;;;28.60;40.50;;;;;;5036005;28;20250;-83
2023/06/24 08:16:28;;;;;;;4.07;3.70;;;28.70;40.50;;;;;;5041700;28;20618;-83
2023/06/24 08:18:56;;;;;;;4.32;3.40;;;28.70;40.30;;;;;;5039982;28;20712;-83
2023/06/24 08:21:24;;;;;;;4.13;3.72;;;28.70;40.20;;;;;;5040109;28;20191;-83
2023/06/24 08:23:52;;;;;;;3.45;3.15;;;28.70;40.10;;;;;;5039993;28;20199;-83
2023/06/24 08:26:20;;;;;;;3.95;3.65;;;28.80;40.20;;;;;;5041181;28;20223;-83
2023/06/24 08:34:54;;;;;;;3.67;3.33;;;28.80;40.30;;;;;;5044987;28;20186;-83
2023/06/24 08:37:23;;;;;;;3.70;3.30;;;28.80;40.40;;;;;;5043485;28;20206;-83
2023/06/24 08:39:50;;;;;;;3.92;3.58;;;28.80;40.40;;;;;;5043176;28;20219;-83
2023/06/24 08:42:17;;;;;;;3.50;3.20;;;28.80;40.40;;;;;;5041301;28;20214;-83
2023/06/24 08:44:44;;;;;;;3.80;3.50;;;28.80;40.30;;;;;;5040679;28;20294;-83
2023/06/24 08:47:11;;;;;;;3.65;3.35;;;28.80;40.20;;;;;;5041233;28;20274;-83
2023/06/24 08:49:41;;;;;;;3.38;3.13;;;28.90;40.30;;;;;;5040381;28;20310;-83
2023/06/24 08:52:11;;;;;;;3.83;3.53;;;28.90;40.30;;;;;;5040758;28;20200;-83
2023/06/24 08:54:41;;;;;;;3.70;3.40;;;28.90;40.10;;;;;;5039555;28;20232;-83
2023/06/24 08:57:14;;;;;;;3.50;3.20;;;28.90;40.10;;;;;;5023307;28;20203;-83
2023/06/24 08:59:41;;;;;;;3.60;3.30;;;29.00;40.00;;;;;;5027941;28;20246;-83
2023/06/24 09:02:08;;;;;;;3.35;3.05;;;29.00;40.00;;;;;;5042948;28;20203;-83
2023/06/24 09:04:35;;;;;;;4.03;3.70;;;29.00;40.00;;;;;;5041026;28;20196;-83
2023/06/24 09:07:03;;;;;;;3.33;3.03;;;29.10;40.00;;;;;;5040313;28;20623;-83
2023/06/24 09:09:30;;;;;;;3.78;3.47;;;29.10;40.00;;;;;;5040801;28;20215;-83
2023/06/24 09:11:59;;;;;;;3.42;3.13;;;29.10;39.90;;;;;;5041205;28;20268;-83
2023/06/24 09:14:26;;;;;;;3.60;3.30;;;29.10;39.90;;;;;;5039327;28;20233;-83
2023/06/24 09:16:54;;;;;;;3.28;2.97;;;29.10;39.80;;;;;;5039525;28;20203;-83
2023/06/24 09:19:22;;;;;;;3.28;3.03;;;29.10;39.80;;;;;;5040897;28;20249;-83
2023/06/24 09:21:49;;;;;;;2.97;2.78;;;29.10;39.70;;;;;;5025050;28;20222;-83
2023/06/24 09:24:16;;;;;;;3.25;2.90;;;29.20;39.70;;;;;;5023285;28;20191;-83
2023/06/24 09:26:44;;;;;;;3.60;3.30;;;29.20;39.70;;;;;;5038695;28;20250;-83
2023/06/24 09:29:13;;;;;;;3.60;3.30;;;29.20;39.70;;;;;;5038388;28;20315;-83
2023/06/24 09:31:48;;;;;;;3.92;3.38;;;29.20;39.60;;;;;;5037275;28;20197;-83
2023/06/24 09:34:15;;;;;;;3.38;3.13;;;29.20;39.70;;;;;;5038088;28;20217;-83
2023/06/24 09:36:48;;;;;;;3.58;3.28;;;29.30;39.60;;;;;;5037340;28;20527;-83
2023/06/24 09:39:15;;;;;;;3.63;3.33;;;29.20;39.40;;;;;;5036513;28;20656;-83
2023/06/24 09:41:42;;;;;;;3.42;3.13;;;29.20;39.40;;;;;;5036929;28;20203;-83
2023/06/24 09:44:09;;;;;;;3.30;3.00;;;29.20;39.40;;;;;;5035490;28;20282;-83
2023/06/24 09:46:38;;;;;;;3.20;3.00;;;29.20;39.40;;;;;;5036029;28;20558;-83
2023/06/24 09:49:05;;;;;;;4.53;3.42;;;29.20;39.30;;;;;;5035675;28;20220;-83
2023/06/24 09:51:33;;;;;;;3.30;3.00;;;29.20;39.30;;;;;;5035961;28;20230;-83
2023/06/24 09:54:00;;;;;;;3.28;3.03;;;29.20;39.50;;;;;;5035704;28;20250;-83
2023/06/24 09:56:27;;;;;;;3.55;3.25;;;29.20;39.50;;;;;;5018788;28;20203;-83
2023/06/24 09:58:54;;;;;;;3.70;3.20;;;29.20;39.60;;;;;;5035585;28;20219;-83
2023/06/24 10:01:21;;;;;;;3.25;2.95;;;29.20;39.60;;;;;;5035931;28;20294;-83
2023/06/24 10:03:50;;;;;;;2.85;2.65;;;29.10;39.80;;;;;;5035553;28;20191;-83
2023/06/24 10:06:16;;;;;;;3.45;3.15;;;29.10;39.90;;;;;;5035439;28;20253;-83
2023/06/24 10:08:43;;;;;;;2.90;2.70;;;29.10;39.90;;;;;;5035361;28;20227;-83
2023/06/24 10:11:10;;;;;;;3.13;2.92;;;29.00;40.00;;;;;;5019202;28;20242;-83
2023/06/24 10:13:38;;;;;;;2.95;2.75;;;28.90;40.10;;;;;;5035769;28;20216;-83
2023/06/24 10:16:05;;;;;;;3.42;3.22;;;28.80;40.20;;;;;;5019229;28;20199;-83
2023/06/24 10:18:36;;;;;;;3.40;3.10;;;28.80;40.30;;;;;;5019226;28;20215;-83
2023/06/24 10:21:05;;;;;;;3.05;2.85;;;28.70;40.40;;;;;;5035510;28;20265;-83
2023/06/24 10:23:33;;;;;;;3.00;2.80;;;28.70;40.50;;;;;;5035594;28;20709;-83
2023/06/24 10:26:00;;;;;;;3.30;3.00;;;28.70;40.60;;;;;;5038095;28;20214;-84
2023/06/24 10:28:28;;;;;;;3.45;3.15;;;28.70;40.60;;;;;;5041373;28;20215;-83
2023/06/24 10:30:58;;;;;;;3.25;2.95;;;28.70;40.60;;;;;;5040483;28;20210;-84
2023/06/24 10:33:25;;;;;;;3.35;3.05;;;28.70;40.70;;;;;;5039480;28;20215;-83
2023/06/24 10:35:53;;;;;;;3.30;3.00;;;28.70;40.70;;;;;;5035496;28;20205;-83
2023/06/24 10:38:21;;;;;;;3.60;3.30;;;28.60;40.80;;;;;;5035129;28;20677;-83
2023/06/24 10:40:49;;;;;;;3.35;3.05;;;28.60;40.80;;;;;;5037490;28;20221;-83
2023/06/24 10:43:30;;;;;;;3.30;3.10;;;28.60;40.90;;;;;;5034966;28;20261;-83
2023/06/24 10:45:58;;;;;;;3.05;2.85;;;28.60;41.00;;;;;;5162437;22;20250;-82
2023/06/24 10:48:26;;;;;;;3.03;2.83;;;28.60;41.20;;;;;;5034579;28;20228;-82
2023/06/24 10:50:53;;;;;;;3.00;2.80;;;28.50;41.20;;;;;;5034736;28;20669;-82
2023/06/24 10:53:22;;;;;;;3.00;2.80;;;28.50;41.30;;;;;;5034869;28;20227;-82
2023/06/24 10:55:49;;;;;;;3.38;3.08;;;28.40;41.30;;;;;;5036104;28;20184;-82
2023/06/24 10:58:16;;;;;;;3.08;2.88;;;28.40;41.40;;;;;;5035163;28;20199;-82
2023/06/24 11:00:45;;;;;;;3.30;3.10;;;28.40;41.50;;;;;;5036397;28;20203;-82
2023/06/24 11:03:13;;;;;;;3.40;3.10;;;28.40;41.50;;;;;;5035339;28;20214;-82
2023/06/24 11:05:41;;;;;;;3.00;2.80;;;28.30;41.60;;;;;;5035283;28;20223;-82
2023/06/24 11:08:07;;;;;;;3.28;3.08;;;28.30;41.70;;;;;;5034809;28;20262;-82
2023/06/24 11:10:43;;;;;;;3.42;3.13;;;28.30;41.80;;;;;;5033895;28;20195;-82
2023/06/24 11:13:10;;;;;;;3.20;2.90;;;28.20;41.80;;;;;;5034660;28;20199;-83
2023/06/24 11:15:36;;;;;;;3.15;2.85;;;28.20;41.90;;;;;;5034327;28;20195;-83
2023/06/24 11:18:04;;;;;;;3.15;2.90;;;28.20;42.00;;;;;;5034644;28;20202;-83
2023/06/24 11:20:31;;;;;;;3.10;2.90;;;28.10;42.00;;;;;;5035210;28;20238;-83
2023/06/24 11:22:58;;;;;;;3.20;3.00;;;28.10;42.00;;;;;;5033920;28;20245;-83
2023/06/24 11:25:25;;;;;;;3.05;2.85;;;28.10;42.10;;;;;;5034015;28;20199;-83
2023/06/24 11:27:54;;;;;;;3.47;3.17;;;28.10;42.30;;;;;;5034238;28;20298;-83
2023/06/24 11:30:21;;;;;;;2.95;2.75;;;28.00;42.30;;;;;;5034203;28;20219;-83
2023/06/24 11:32:49;;;;;;;3.30;3.05;;;28.00;42.40;;;;;;5035545;28;20206;-82
2023/06/24 11:35:16;;;;;;;2.92;2.72;;;28.00;42.40;;;;;;5035698;28;20242;-82
2023/06/24 11:37:44;;;;;;;3.38;3.08;;;28.00;42.50;;;;;;5033380;28;20199;-82
2023/06/24 11:40:12;;;;;;;2.92;2.72;;;28.00;42.50;;;;;;5033561;28;20716;-82
2023/06/24 11:42:40;;;;;;;3.10;2.80;;;28.00;42.50;;;;;;5034761;28;20210;-83
2023/06/24 11:45:09;;;;;;;3.10;2.90;;;28.00;42.50;;;;;;5034338;28;20722;-83
2023/06/24 11:47:36;;;;;;;3.10;2.80;;;28.00;42.50;;;;;;5033118;28;20195;-82
2023/06/24 11:50:04;;;;;;;3.17;2.88;;;27.90;42.60;;;;;;5032757;28;20632;-83
2023/06/24 11:52:41;;;;;;;3.05;2.78;;;27.90;42.70;;;;;;5032712;28;20203;-82
2023/06/24 11:55:17;;;;;;;6.80;3.25;;;28.00;42.30;;;;;;5034369;28;20215;-83
2023/06/24 11:57:55;;;;;;;4.55;2.90;;;28.00;42.20;;;;;;5033973;28;20199;-84
2023/06/24 12:00:24;;;;;;;3.33;3.03;;;28.00;41.80;;;;;;5001068;28;20202;-84
2023/06/24 12:02:52;;;;;;;4.38;3.30;;;28.00;41.60;;;;;;5033281;28;20573;-84
2023/06/24 12:05:26;;;;;;;5.22;3.08;;;28.00;41.60;;;;;;5034676;28;20187;-84
2023/06/24 12:07:56;;;;;;;3.53;2.95;;;28.00;41.10;;;;;;5033334;28;20195;-84
2023/06/24 12:10:23;;;;;;;3.92;3.33;;;28.00;40.90;;;;;;5034292;28;20601;-84
2023/06/24 12:12:50;;;;;;;3.42;3.13;;;28.00;41.00;;;;;;5033211;28;20207;-84
2023/06/24 12:15:17;;;;;;;3.53;3.13;;;27.90;41.00;;;;;;5032962;28;20620;-83
2023/06/24 12:17:45;;;;;;;3.88;3.10;;;27.90;40.80;;;;;;5032855;28;20199;-84
2023/06/24 12:20:14;;;;;;;3.63;3.08;;;27.90;40.80;;;;;;5032733;28;20219;-83
2023/06/24 12:22:41;;;;;;;3.50;3.20;;;27.90;40.90;;;;;;5033450;28;20205;-83
2023/06/24 12:25:09;;;;;;;3.55;2.97;;;27.90;41.10;;;;;;5033423;28;20195;-83
2023/06/24 12:27:36;;;;;;;3.30;3.00;;;27.90;40.90;;;;;;5034997;28;20200;-83
2023/06/24 12:30:03;;;;;;;3.03;2.78;;;27.90;40.10;;;;;;5033714;28;20249;-83
2023/06/24 12:32:30;;;;;;;3.63;3.30;;;27.90;39.80;;;;;;5032613;28;20203;-84
2023/06/24 12:34:59;;;;;;;3.47;3.17;;;27.90;39.00;;;;;;5034784;28;20218;-84
2023/06/24 12:37:28;;;;;;;3.53;3.22;;;27.90;39.30;;;;;;5033728;28;20328;-84
2023/06/24 12:39:56;;;;;;;3.60;3.30;;;27.90;39.20;;;;;;5034117;28;20223;-84
2023/06/24 12:42:23;;;;;;;3.65;3.33;;;27.90;39.30;;;;;;5034580;28;20203;-84
2023/06/24 12:44:50;;;;;;;3.55;3.10;;;27.90;39.20;;;;;;5034603;28;20249;-84
2023/06/24 12:47:17;;;;;;;3.67;3.38;;;27.80;39.00;;;;;;5035741;28;20569;-84
2023/06/24 12:49:44;;;;;;;3.40;3.10;;;27.90;39.10;;;;;;5033429;28;20219;-84
2023/06/24 12:52:13;;;;;;;3.17;2.90;;;27.90;38.90;;;;;;5016202;28;20199;-84
2023/06/24 12:54:41;;;;;;;3.30;3.05;;;27.90;38.70;;;;;;5032246;28;20270;-84
2023/06/24 12:57:08;;;;;;;3.38;3.08;;;27.90;38.80;;;;;;5033107;28;20204;-84
2023/06/24 12:59:35;;;;;;;3.25;3.05;;;27.90;38.70;;;;;;5033229;28;20269;-84